createdAt,value
2024-05-09T00:00:55.285Z,9.63
2024-05-09T00:03:26.158Z,9.82
2024-05-09T00:05:57.084Z,9.02
2024-05-09T00:08:28.308Z,10.02
2024-05-09T00:10:59.306Z,9.90
2024-05-09T00:13:32.952Z,9.10
2024-05-09T00:16:03.833Z,8.75
2024-05-09T00:18:34.769Z,8.82
2024-05-09T00:21:08.359Z,9.27
2024-05-09T00:23:39.348Z,8.60
2024-05-09T00:26:10.238Z,7.80
2024-05-09T00:28:43.696Z,7.97
2024-05-09T00:31:14.559Z,9.70
2024-05-09T00:33:45.480Z,8.82
2024-05-09T00:36:16.414Z,9.10
2024-05-09T00:38:47.613Z,8.77
2024-05-09T00:41:19.873Z,9.32
2024-05-09T00:43:53.630Z,8.02
2024-05-09T00:46:24.630Z,9.25
2024-05-09T00:48:55.669Z,9.15
2024-05-09T00:51:26.624Z,7.82
2024-05-09T00:53:57.969Z,8.65
2024-05-09T00:56:29.401Z,9.93
2024-05-09T00:59:03.806Z,9.30
2024-05-09T01:01:34.928Z,9.85
2024-05-09T01:04:05.927Z,10.20
2024-05-09T01:06:36.942Z,10.13
2024-05-09T01:09:07.803Z,9.63
2024-05-09T01:11:40.837Z,8.93
2024-05-09T01:14:14.375Z,9.10
2024-05-09T01:16:45.600Z,9.15
2024-05-09T01:19:26.348Z,9.27
2024-05-09T01:21:57.556Z,9.95
2024-05-09T01:24:30.975Z,9.50
2024-05-09T01:27:01.901Z,9.10
2024-05-09T01:29:32.713Z,9.07
2024-05-09T01:32:04.993Z,8.82
2024-05-09T01:34:35.884Z,9.00
2024-05-09T01:37:07.250Z,9.18
2024-05-09T01:39:40.716Z,8.68
2024-05-09T01:42:11.551Z,8.85
2024-05-09T01:44:43.539Z,8.60
2024-05-09T01:47:14.495Z,9.30
2024-05-09T01:49:45.506Z,8.52
2024-05-09T01:52:16.465Z,8.07
2024-05-09T01:54:49.882Z,8.52
2024-05-09T01:57:20.728Z,8.55
2024-05-09T01:59:51.498Z,8.75
2024-05-09T02:02:22.481Z,8.82
2024-05-09T02:04:53.413Z,8.60
2024-05-09T02:07:24.304Z,7.90
2024-05-09T02:09:57.732Z,9.02
2024-05-09T02:12:28.669Z,7.68
2024-05-09T02:14:59.531Z,8.70
2024-05-09T02:17:30.528Z,8.68
2024-05-09T02:20:01.518Z,8.82
2024-05-09T02:22:32.382Z,8.23
2024-05-09T02:25:05.809Z,9.02
2024-05-09T02:27:36.611Z,9.35
2024-05-09T02:30:18.284Z,8.68
2024-05-09T02:32:53.881Z,8.45
2024-05-09T02:35:24.908Z,8.90
2024-05-09T02:37:53.248Z,8.10
2024-05-09T02:40:35.554Z,7.90
2024-05-09T02:43:11.273Z,8.10
2024-05-09T02:45:40.566Z,7.97
2024-05-09T02:48:14.525Z,8.93
2024-05-09T02:50:44.362Z,8.55
2024-05-09T02:53:16.040Z,7.95
2024-05-09T02:55:46.987Z,7.25
2024-05-09T02:58:18.131Z,8.48
2024-05-09T03:00:46.409Z,8.00
2024-05-09T03:03:17.588Z,8.63
2024-05-09T03:05:46.503Z,8.27
2024-05-09T03:08:17.587Z,8.93
2024-05-09T03:10:48.559Z,9.25
2024-05-09T03:13:19.480Z,9.82
2024-05-09T03:15:47.675Z,9.50
2024-05-09T03:18:18.620Z,9.82
2024-05-09T03:20:46.946Z,10.50
2024-05-09T03:23:17.897Z,9.48
2024-05-09T03:25:48.773Z,10.18
2024-05-09T03:28:19.587Z,9.60
2024-05-09T03:30:47.785Z,9.55
2024-05-09T03:33:20.452Z,10.57
2024-05-09T03:35:49.700Z,9.38
2024-05-09T03:38:20.652Z,8.68
2024-05-09T03:40:54.454Z,8.30
2024-05-09T03:43:25.287Z,7.78
2024-05-09T03:45:56.115Z,7.95
2024-05-09T03:48:24.657Z,8.52
2024-05-09T03:50:55.677Z,7.55
2024-05-09T03:53:25.301Z,8.93
2024-05-09T03:55:59.447Z,7.80
2024-05-09T03:58:27.708Z,8.77
2024-05-09T04:00:58.730Z,9.40
2024-05-09T04:03:27.288Z,8.73
2024-05-09T04:05:59.020Z,8.77
2024-05-09T04:08:27.214Z,8.93
2024-05-09T04:11:00.818Z,7.32
2024-05-09T04:13:29.031Z,7.82
2024-05-09T04:15:59.867Z,7.88
2024-05-09T04:18:28.195Z,7.55
2024-05-09T04:20:59.670Z,7.65
2024-05-09T04:23:28.135Z,7.45
2024-05-09T04:26:04.378Z,7.60
2024-05-09T04:28:32.614Z,7.18
2024-05-09T04:31:03.570Z,7.85
2024-05-09T04:33:31.895Z,8.63
2024-05-09T04:36:03.007Z,8.20
2024-05-09T04:38:31.171Z,7.45
2024-05-09T04:41:04.697Z,8.52
2024-05-09T04:43:35.210Z,9.32
2024-05-09T04:46:06.080Z,9.40
2024-05-09T04:48:34.397Z,9.48
2024-05-09T04:51:05.875Z,8.63
2024-05-09T04:53:34.299Z,9.15
2024-05-09T04:56:09.488Z,8.90
2024-05-09T04:58:37.886Z,8.43
2024-05-09T05:01:08.733Z,7.95
2024-05-09T05:03:37.129Z,8.35
2024-05-09T05:06:08.833Z,8.23
2024-05-09T05:08:37.852Z,8.63
2024-05-09T05:11:11.554Z,8.50
2024-05-09T05:13:41.515Z,8.60
2024-05-09T05:16:12.769Z,8.18
2024-05-09T05:18:41.099Z,7.43
2024-05-09T05:21:12.095Z,6.32
2024-05-09T05:23:41.083Z,7.03
2024-05-09T05:26:20.300Z,6.45
2024-05-09T05:28:48.643Z,6.50
2024-05-09T05:31:19.934Z,6.03
2024-05-09T05:33:49.267Z,6.15
2024-05-09T05:36:20.155Z,6.10
2024-05-09T05:38:48.495Z,6.35
2024-05-09T05:41:22.059Z,6.40
2024-05-09T05:43:50.310Z,6.00
2024-05-09T05:46:21.217Z,6.00
2024-05-09T05:48:49.619Z,6.65
2024-05-09T05:51:20.622Z,6.80
2024-05-09T05:53:48.962Z,5.85
2024-05-09T05:56:22.499Z,6.45
2024-05-09T05:58:51.536Z,6.00
2024-05-09T06:01:22.510Z,5.05
2024-05-09T06:03:50.806Z,5.53
2024-05-09T06:06:21.710Z,5.15
2024-05-09T06:08:49.985Z,5.20
2024-05-09T06:11:23.614Z,5.05
2024-05-09T06:13:51.939Z,5.22
2024-05-09T06:16:23.768Z,4.85
2024-05-09T06:18:52.173Z,5.32
2024-05-09T06:21:23.309Z,5.32
2024-05-09T06:23:51.661Z,4.60
2024-05-09T06:26:25.370Z,4.82
2024-05-09T06:28:53.632Z,4.30
2024-05-09T06:31:24.490Z,4.30
2024-05-09T06:33:52.821Z,4.30
2024-05-09T06:36:23.785Z,4.45
2024-05-09T06:38:52.060Z,4.22
2024-05-09T06:41:25.627Z,4.75
2024-05-09T06:43:53.842Z,4.43
2024-05-09T06:46:25.541Z,4.00
2024-05-09T06:48:54.179Z,4.50
2024-05-09T06:51:25.872Z,4.32
2024-05-09T06:53:55.111Z,3.72
2024-05-09T06:56:28.593Z,3.83
2024-05-09T06:58:56.971Z,3.95
2024-05-09T07:01:27.932Z,3.53
2024-05-09T07:03:56.273Z,4.60
2024-05-09T07:06:27.341Z,3.58
2024-05-09T07:08:55.569Z,4.05
2024-05-09T07:11:29.147Z,3.50
2024-05-09T07:13:57.494Z,3.40
2024-05-09T07:16:28.353Z,3.35
2024-05-09T07:18:56.692Z,3.17
2024-05-09T07:21:27.674Z,3.42
2024-05-09T07:23:55.912Z,2.67
2024-05-09T07:26:29.428Z,2.33
2024-05-09T07:28:57.661Z,2.60
2024-05-09T07:31:30.747Z,2.80
2024-05-09T07:33:59.643Z,2.55
2024-05-09T07:36:30.526Z,2.97
2024-05-09T07:38:58.867Z,2.40
2024-05-09T07:41:32.524Z,2.58
2024-05-09T07:55:02.155Z,2.30
2024-05-09T07:57:32.964Z,2.78
2024-05-09T08:00:04.508Z,2.40
2024-05-09T08:02:33.073Z,2.88
2024-05-09T08:05:03.984Z,2.72
2024-05-09T08:07:34.836Z,2.30
2024-05-09T08:10:08.103Z,2.42
2024-05-09T08:13:55.082Z,2.50
2024-05-09T08:21:01.980Z,2.25
2024-05-09T08:23:30.213Z,2.22
2024-05-09T08:26:00.939Z,2.00
2024-05-09T08:28:29.109Z,1.98
2024-05-09T08:31:02.394Z,1.70
2024-05-09T08:33:33.162Z,2.15
2024-05-09T08:36:07.113Z,1.90
2024-05-09T08:38:35.211Z,2.17
2024-05-09T08:41:07.248Z,2.08
2024-05-09T08:43:39.037Z,1.95
2024-05-09T08:46:13.130Z,2.10
2024-05-09T08:48:44.153Z,2.30
2024-05-09T08:51:19.795Z,1.98
2024-05-09T08:54:07.696Z,2.42
2024-05-09T09:48:47.131Z,2.17
2024-05-09T09:51:16.016Z,2.50
2024-05-09T09:53:50.242Z,3.03
2024-05-09T09:56:20.245Z,2.83
2024-05-09T09:58:51.908Z,3.58
2024-05-09T10:01:21.631Z,2.28
2024-05-09T10:03:56.490Z,2.75
2024-05-09T10:06:25.415Z,2.40
2024-05-09T10:08:57.140Z,2.15
2024-05-09T10:11:29.754Z,3.75
2024-05-09T10:14:00.719Z,3.55
2024-05-09T10:16:31.547Z,5.13
2024-05-09T10:19:05.321Z,2.28
2024-05-09T10:21:33.584Z,2.40
2024-05-09T10:24:07.110Z,2.28
2024-05-09T10:26:37.701Z,2.40
2024-05-09T10:29:16.033Z,2.20
2024-05-09T10:31:46.399Z,3.13
2024-05-09T10:34:25.034Z,9.40
2024-05-09T10:36:55.115Z,1.85
2024-05-09T10:39:28.117Z,39.17
2024-05-09T10:41:56.401Z,3.65
2024-05-09T10:44:27.303Z,2.00
2024-05-09T10:46:56.321Z,2.10
2024-05-09T10:49:29.830Z,1.92
2024-05-09T10:51:57.944Z,1.90
2024-05-09T10:54:38.788Z,2.17
2024-05-09T10:57:07.517Z,2.03
2024-05-09T10:59:39.764Z,1.95
2024-05-09T11:02:08.632Z,1.80
2024-05-09T11:04:44.548Z,1.70
2024-05-09T11:07:14.867Z,1.85
2024-05-09T11:09:46.499Z,1.50
2024-05-09T11:12:14.842Z,1.75
2024-05-09T11:14:56.041Z,1.95
2024-05-09T11:17:24.909Z,1.90
2024-05-09T11:19:58.372Z,1.65
2024-05-09T11:22:32.596Z,1.67
2024-05-09T11:25:04.222Z,1.80
2024-05-09T11:27:32.401Z,1.90
2024-05-09T11:30:04.328Z,1.80
2024-05-09T11:32:33.108Z,1.70
2024-05-09T11:35:07.624Z,2.20
2024-05-09T11:37:39.986Z,2.00
2024-05-09T11:40:21.175Z,1.50
2024-05-09T11:42:54.339Z,1.83
2024-05-09T11:45:25.410Z,1.77
2024-05-09T11:47:53.899Z,2.40
2024-05-09T11:50:33.092Z,1.60
2024-05-09T11:53:04.056Z,2.00
2024-05-09T11:55:36.484Z,1.80
2024-05-09T11:58:05.561Z,2.30
2024-05-09T12:00:37.714Z,1.55
2024-05-09T12:03:06.651Z,1.65
2024-05-09T12:05:40.338Z,1.95
2024-05-09T12:08:08.635Z,1.90
2024-05-09T12:10:39.838Z,1.60
2024-05-09T12:13:08.169Z,1.98
2024-05-09T12:15:39.624Z,2.00
2024-05-09T12:18:08.466Z,1.95
2024-05-09T12:20:42.097Z,1.85
2024-05-09T12:23:10.766Z,1.95
2024-05-09T12:25:42.197Z,1.70
2024-05-09T12:28:10.483Z,1.70
2024-05-09T12:30:41.941Z,1.45
2024-05-09T12:33:12.372Z,1.80
2024-05-09T12:35:49.165Z,2.10
2024-05-09T12:38:18.869Z,1.70
2024-05-09T12:40:49.761Z,1.83
2024-05-09T12:43:18.035Z,2.03
2024-05-09T12:45:48.919Z,1.80
2024-05-09T12:48:17.292Z,1.77
2024-05-09T12:50:51.742Z,1.48
2024-05-09T12:53:19.951Z,1.73
2024-05-09T12:55:56.834Z,1.55
2024-05-09T12:58:28.487Z,1.70
2024-05-09T13:00:59.573Z,1.75
2024-05-09T13:03:28.116Z,1.70
2024-05-09T13:06:01.860Z,1.70
2024-05-09T13:08:30.112Z,1.70
2024-05-09T13:11:01.525Z,1.90
2024-05-09T13:13:29.669Z,1.58
2024-05-09T13:16:00.723Z,1.60
2024-05-09T13:18:29.053Z,1.83
2024-05-09T13:21:02.576Z,2.28
2024-05-09T13:23:30.919Z,1.52
2024-05-09T13:26:01.798Z,1.90
2024-05-09T13:28:32.338Z,1.63
2024-05-09T13:31:04.411Z,1.75
2024-05-09T13:33:33.784Z,1.80
2024-05-09T13:36:08.709Z,1.98
2024-05-09T13:38:36.861Z,1.65
2024-05-09T13:41:08.544Z,1.73
2024-05-09T13:43:36.659Z,1.90
2024-05-09T13:46:07.910Z,1.77
2024-05-09T13:48:36.335Z,1.73
2024-05-09T13:51:09.912Z,1.80
2024-05-09T13:53:37.997Z,1.90
2024-05-09T13:56:09.338Z,1.88
2024-05-09T13:58:37.560Z,1.80
2024-05-09T14:01:08.484Z,1.80
2024-05-09T14:03:36.886Z,1.70
2024-05-09T14:06:12.825Z,1.70
2024-05-09T14:08:41.612Z,1.38
2024-05-09T14:11:12.489Z,1.58
2024-05-09T14:13:40.770Z,1.85
2024-05-09T14:16:11.887Z,1.58
2024-05-09T14:18:41.038Z,1.70
2024-05-09T14:21:14.452Z,1.90
2024-05-09T14:23:42.589Z,1.67
2024-05-09T14:26:14.167Z,1.83
2024-05-09T14:28:42.540Z,1.75
2024-05-09T14:31:15.346Z,1.73
2024-05-09T14:33:44.431Z,2.40
2024-05-09T14:36:21.641Z,1.80
2024-05-09T14:38:59.322Z,1.85
2024-05-09T14:41:30.050Z,1.83
2024-05-09T14:43:58.172Z,1.70
2024-05-09T14:46:29.154Z,1.63
2024-05-09T14:48:59.568Z,1.98
2024-05-09T14:51:35.772Z,1.45
2024-05-09T14:54:04.184Z,2.25
2024-05-09T14:56:34.982Z,2.05
2024-05-09T14:59:03.464Z,1.90
2024-05-09T15:02:12.501Z,1.77
2024-05-09T15:04:41.011Z,1.58
2024-05-09T15:07:14.531Z,1.90
2024-05-09T15:09:43.136Z,2.00
2024-05-09T15:12:13.859Z,1.80
2024-05-09T15:14:42.301Z,1.80
2024-05-09T15:17:13.072Z,1.80
2024-05-09T15:19:41.474Z,1.70
2024-05-09T15:22:16.542Z,1.73
2024-05-09T15:24:45.303Z,1.90
2024-05-09T15:27:16.227Z,1.80
2024-05-09T15:29:45.676Z,1.75
2024-05-09T15:32:17.621Z,2.05
2024-05-09T15:34:46.252Z,1.70
2024-05-09T15:37:19.955Z,1.90
2024-05-09T15:39:48.579Z,1.80
2024-05-09T15:42:19.344Z,1.80
2024-05-09T15:44:52.953Z,1.80
2024-05-09T15:47:23.819Z,1.70
2024-05-09T15:49:52.130Z,1.85
2024-05-09T15:52:25.609Z,1.65
2024-05-09T15:54:54.046Z,1.73
2024-05-09T15:57:25.032Z,2.20
2024-05-09T15:59:53.263Z,1.90
2024-05-09T16:02:24.591Z,1.90
2024-05-09T16:04:53.196Z,1.60
2024-05-09T16:07:26.730Z,1.77
2024-05-09T16:09:54.886Z,1.90
2024-05-09T16:12:25.656Z,2.08
2024-05-09T16:14:53.775Z,1.85
2024-05-09T16:17:24.640Z,1.80
2024-05-09T16:19:53.021Z,1.70
2024-05-09T16:22:26.555Z,1.90
2024-05-09T16:24:54.892Z,1.90
2024-05-09T16:27:25.836Z,1.90
2024-05-09T16:29:55.901Z,1.80
2024-05-09T16:32:27.104Z,1.88
2024-05-09T16:34:55.467Z,1.60
2024-05-09T16:37:29.765Z,1.48
2024-05-09T16:39:58.467Z,1.75
2024-05-09T16:42:29.336Z,1.80
2024-05-09T16:44:57.470Z,1.77
2024-05-09T16:47:28.497Z,1.77
2024-05-09T16:49:56.688Z,1.95
2024-05-09T16:52:30.202Z,1.70
2024-05-09T16:54:58.348Z,1.90
2024-05-09T16:57:29.210Z,1.70
2024-05-09T16:59:57.531Z,2.72
2024-05-09T17:02:28.886Z,1.77
2024-05-09T17:04:57.290Z,2.03
2024-05-09T17:07:30.922Z,1.63
2024-05-09T17:09:59.190Z,1.67
2024-05-09T17:12:30.233Z,2.05
2024-05-09T17:15:01.105Z,1.80
2024-05-09T17:17:29.476Z,1.90
2024-05-09T17:20:00.548Z,2.10
2024-05-09T17:22:32.229Z,2.03
2024-05-09T17:25:03.182Z,1.67
2024-05-09T17:27:31.830Z,2.08
2024-05-09T17:30:03.539Z,2.00
2024-05-09T17:32:32.914Z,1.60
2024-05-09T17:35:03.855Z,1.75
2024-05-09T17:37:35.831Z,2.10
2024-05-09T17:40:14.388Z,1.80
2024-05-09T17:42:47.872Z,1.85
2024-05-09T17:45:16.701Z,1.83
2024-05-09T17:47:47.833Z,1.50
2024-05-09T17:50:23.784Z,1.77
2024-05-09T17:53:01.847Z,1.42
2024-05-09T17:55:30.312Z,1.90
2024-05-09T17:58:01.639Z,2.13
2024-05-09T18:00:37.594Z,1.67
2024-05-09T18:03:13.610Z,2.10
2024-05-09T18:05:43.983Z,2.30
2024-05-09T18:08:18.260Z,3.00
2024-05-09T18:10:46.464Z,2.55
2024-05-09T18:13:17.330Z,2.63
2024-05-09T18:15:45.584Z,2.30
2024-05-09T18:18:17.562Z,2.33
2024-05-09T18:20:46.517Z,2.10
2024-05-09T18:23:20.279Z,2.10
2024-05-09T18:25:48.574Z,3.08
2024-05-09T18:28:19.834Z,3.10
2024-05-09T18:30:48.043Z,2.20
2024-05-09T18:33:19.447Z,2.25
2024-05-09T18:35:48.856Z,2.85
2024-05-09T18:38:25.620Z,2.95
2024-05-09T18:40:53.895Z,2.40
2024-05-09T18:43:31.039Z,2.45
2024-05-09T18:46:04.625Z,2.38
2024-05-09T18:48:35.834Z,2.85
2024-05-09T18:51:05.738Z,2.60
2024-05-09T18:53:39.634Z,2.08
2024-05-09T18:56:08.880Z,2.60
2024-05-09T18:58:41.047Z,2.70
2024-05-09T19:01:09.486Z,2.42
2024-05-09T19:03:40.839Z,2.63
2024-05-09T19:06:09.411Z,2.70
2024-05-09T19:08:42.926Z,3.35
2024-05-09T19:11:11.465Z,3.50
2024-05-09T19:13:42.255Z,4.38
2024-05-09T19:16:10.793Z,5.20
2024-05-09T19:18:41.915Z,4.13
2024-05-09T19:21:10.495Z,3.47
2024-05-09T19:23:50.548Z,3.80
2024-05-09T19:26:20.366Z,4.53
2024-05-09T19:28:51.136Z,3.88
2024-05-09T19:31:19.547Z,5.57
2024-05-09T19:33:50.617Z,3.80
2024-05-09T19:36:19.573Z,4.25
2024-05-09T19:38:53.465Z,3.55
2024-05-09T19:41:22.983Z,2.72
2024-05-09T19:43:54.000Z,2.67
2024-05-09T19:46:23.853Z,2.65
2024-05-09T19:48:57.347Z,2.45
2024-05-09T19:51:25.938Z,2.30
2024-05-09T19:53:59.594Z,2.70
2024-05-09T19:56:27.792Z,2.33
2024-05-09T19:58:58.852Z,2.60
2024-05-09T20:01:27.379Z,2.80
2024-05-09T20:03:59.342Z,2.75
2024-05-09T20:06:29.583Z,3.20
2024-05-09T20:09:04.078Z,3.70
2024-05-09T20:11:33.304Z,3.55
2024-05-09T20:14:04.238Z,2.95
2024-05-09T20:16:32.539Z,3.10
2024-05-09T20:19:09.302Z,2.90
2024-05-09T20:21:42.359Z,3.13
2024-05-09T20:24:16.040Z,2.72
2024-05-09T20:26:44.362Z,3.00
2024-05-09T20:29:15.200Z,3.55
2024-05-09T20:31:43.461Z,3.25
2024-05-09T20:34:15.506Z,3.28
2024-05-09T20:36:44.062Z,3.60
2024-05-09T20:39:17.448Z,3.10
2024-05-09T20:41:45.558Z,3.20
2024-05-09T20:44:17.014Z,3.22
2024-05-09T20:46:45.517Z,3.30
2024-05-09T20:49:17.091Z,3.53
2024-05-09T20:51:45.567Z,3.30
2024-05-09T20:54:19.034Z,3.42
2024-05-09T20:56:47.122Z,3.05
2024-05-09T20:59:18.078Z,3.78
2024-05-09T21:01:49.220Z,3.20
2024-05-09T21:04:20.778Z,3.10
2024-05-09T21:06:49.172Z,3.22
2024-05-09T21:09:25.788Z,3.20
2024-05-09T21:11:54.093Z,3.30
2024-05-09T21:14:25.018Z,3.15
2024-05-09T21:16:53.237Z,3.08
2024-05-09T21:19:24.375Z,3.55
2024-05-09T21:21:53.461Z,3.20
2024-05-09T21:24:27.125Z,3.20
2024-05-09T21:26:55.830Z,3.08
2024-05-09T21:29:26.574Z,3.38
2024-05-09T21:31:54.704Z,3.35
2024-05-09T21:34:25.571Z,3.03
2024-05-09T21:36:53.725Z,3.80
2024-05-09T21:39:28.361Z,3.58
2024-05-09T21:42:01.761Z,3.45
2024-05-09T21:44:32.890Z,3.55
2024-05-09T21:47:01.065Z,3.40
2024-05-09T21:49:31.964Z,3.00
2024-05-09T21:52:00.166Z,3.22
2024-05-09T21:54:33.728Z,3.92
2024-05-09T21:57:02.357Z,3.72
2024-05-09T21:59:33.522Z,3.75
2024-05-09T22:02:02.067Z,3.47
2024-05-09T22:04:33.047Z,3.78
2024-05-09T22:07:01.412Z,3.47
2024-05-09T22:09:35.021Z,3.70
2024-05-09T22:12:04.740Z,3.95
2024-05-09T22:14:35.552Z,3.67
2024-05-09T22:17:04.156Z,3.40
2024-05-09T22:19:35.132Z,3.65
2024-05-09T22:22:03.678Z,3.78
2024-05-09T22:24:37.275Z,3.88
2024-05-09T22:27:06.216Z,3.38
2024-05-09T22:29:37.020Z,3.40
2024-05-09T22:32:05.955Z,3.58
2024-05-09T22:34:36.822Z,3.80
2024-05-09T22:37:05.137Z,3.80
2024-05-09T22:39:38.520Z,3.88
2024-05-09T22:42:06.684Z,3.58
2024-05-09T22:44:37.360Z,4.25
2024-05-09T22:47:05.537Z,4.03
2024-05-09T22:49:36.316Z,3.58
2024-05-09T22:52:05.186Z,4.57
2024-05-09T22:54:38.732Z,4.07
2024-05-09T22:57:06.845Z,4.10
2024-05-09T22:59:37.711Z,3.58
2024-05-09T23:02:06.120Z,3.92
2024-05-09T23:04:37.065Z,3.67
2024-05-09T23:07:05.300Z,4.03
2024-05-09T23:09:38.945Z,4.10
2024-05-09T23:12:07.822Z,3.47
2024-05-09T23:14:38.614Z,4.35
2024-05-09T23:17:06.786Z,4.93
2024-05-09T23:19:37.696Z,4.55
2024-05-09T23:22:06.137Z,5.20
2024-05-09T23:24:41.827Z,4.95
2024-05-09T23:27:09.970Z,4.95
2024-05-09T23:29:40.723Z,5.43
2024-05-09T23:32:11.535Z,4.80
2024-05-09T23:34:39.836Z,4.43
2024-05-09T23:37:10.924Z,4.40
2024-05-09T23:39:41.778Z,3.97
2024-05-09T23:42:12.759Z,5.03
2024-05-09T23:44:41.097Z,4.20
2024-05-09T23:47:11.983Z,4.30
2024-05-09T23:49:40.287Z,4.18
2024-05-09T23:52:11.263Z,3.90
2024-05-09T23:54:42.387Z,4.50
2024-05-09T23:57:13.198Z,4.00
2024-05-09T23:59:41.922Z,3.90
